sensor_id;sensor_type;location;lat;lon;timestamp;P1;durP1;ratioP1;P2;durP2;ratioP2
60078;SDS011;45951;45.824;8.824;2023-08-31T00:00:51;2.00;;;0.90;;
60078;SDS011;45951;45.824;8.824;2023-08-31T00:02:32;1.38;;;0.90;;
60078;SDS011;45951;45.824;8.824;2023-08-31T00:04:13;1.17;;;0.85;;
60078;SDS011;45951;45.824;8.824;2023-08-31T00:05:54;2.45;;;1.00;;
60078;SDS011;45951;45.824;8.824;2023-08-31T00:07:35;1.08;;;0.90;;
60078;SDS011;45951;45.824;8.824;2023-08-31T00:09:16;1.05;;;0.90;;
60078;SDS011;45951;45.824;8.824;2023-08-31T00:10:56;1.52;;;0.90;;
60078;SDS011;45951;45.824;8.824;2023-08-31T00:12:37;1.52;;;0.98;;
60078;SDS011;45951;45.824;8.824;2023-08-31T00:14:17;1.20;;;0.80;;
60078;SDS011;45951;45.824;8.824;2023-08-31T00:15:58;1.25;;;1.00;;
60078;SDS011;45951;45.824;8.824;2023-08-31T00:17:39;1.30;;;1.00;;
60078;SDS011;45951;45.824;8.824;2023-08-31T00:19:19;1.80;;;1.00;;
60078;SDS011;45951;45.824;8.824;2023-08-31T00:20:59;2.47;;;1.13;;
60078;SDS011;45951;45.824;8.824;2023-08-31T00:22:40;1.00;;;0.90;;
60078;SDS011;45951;45.824;8.824;2023-08-31T00:24:20;2.28;;;1.08;;
60078;SDS011;45951;45.824;8.824;2023-08-31T00:26:08;1.30;;;1.00;;
60078;SDS011;45951;45.824;8.824;2023-08-31T00:27:48;1.20;;;0.70;;
60078;SDS011;45951;45.824;8.824;2023-08-31T00:29:29;2.30;;;0.90;;
60078;SDS011;45951;45.824;8.824;2023-08-31T00:31:10;1.73;;;0.80;;
60078;SDS011;45951;45.824;8.824;2023-08-31T00:32:50;1.55;;;1.00;;
60078;SDS011;45951;45.824;8.824;2023-08-31T00:34:30;1.35;;;1.00;;
60078;SDS011;45951;45.824;8.824;2023-08-31T00:36:11;0.98;;;0.90;;
60078;SDS011;45951;45.824;8.824;2023-08-31T00:37:51;1.63;;;1.00;;
60078;SDS011;45951;45.824;8.824;2023-08-31T00:39:31;1.25;;;0.82;;
60078;SDS011;45951;45.824;8.824;2023-08-31T00:41:13;1.98;;;1.02;;
60078;SDS011;45951;45.824;8.824;2023-08-31T00:42:53;0.70;;;0.70;;
60078;SDS011;45951;45.824;8.824;2023-08-31T00:44:34;1.00;;;0.70;;
60078;SDS011;45951;45.824;8.824;2023-08-31T00:46:14;0.98;;;0.82;;
60078;SDS011;45951;45.824;8.824;2023-08-31T00:47:54;1.40;;;0.95;;
60078;SDS011;45951;45.824;8.824;2023-08-31T00:49:35;0.80;;;0.80;;
60078;SDS011;45951;45.824;8.824;2023-08-31T00:51:15;0.90;;;0.75;;
60078;SDS011;45951;45.824;8.824;2023-08-31T00:52:55;2.25;;;0.93;;
60078;SDS011;45951;45.824;8.824;2023-08-31T00:54:36;1.10;;;0.80;;
60078;SDS011;45951;45.824;8.824;2023-08-31T00:56:17;1.48;;;1.08;;
60078;SDS011;45951;45.824;8.824;2023-08-31T00:57:58;1.17;;;0.88;;
60078;SDS011;45951;45.824;8.824;2023-08-31T00:59:40;1.30;;;0.90;;
60078;SDS011;45951;45.824;8.824;2023-08-31T01:07:26;1.77;;;1.10;;
60078;SDS011;45951;45.824;8.824;2023-08-31T01:13:21;2.17;;;1.10;;
60078;SDS011;45951;45.824;8.824;2023-08-31T01:15:04;2.55;;;1.00;;
60078;SDS011;45951;45.824;8.824;2023-08-31T01:16:48;1.52;;;0.93;;
60078;SDS011;45951;45.824;8.824;2023-08-31T01:18:29;1.63;;;0.98;;
60078;SDS011;45951;45.824;8.824;2023-08-31T01:20:11;0.90;;;0.90;;
60078;SDS011;45951;45.824;8.824;2023-08-31T01:21:57;1.77;;;1.00;;
60078;SDS011;45951;45.824;8.824;2023-08-31T01:23:52;1.33;;;1.02;;
60078;SDS011;45951;45.824;8.824;2023-08-31T01:25:33;2.30;;;1.00;;
60078;SDS011;45951;45.824;8.824;2023-08-31T01:27:13;1.85;;;1.20;;
60078;SDS011;45951;45.824;8.824;2023-08-31T01:28:54;1.77;;;1.25;;
60078;SDS011;45951;45.824;8.824;2023-08-31T01:30:35;1.17;;;1.00;;
60078;SDS011;45951;45.824;8.824;2023-08-31T01:32:16;1.48;;;1.20;;
60078;SDS011;45951;45.824;8.824;2023-08-31T01:33:56;1.10;;;0.98;;
60078;SDS011;45951;45.824;8.824;2023-08-31T01:35:46;2.25;;;1.15;;
60078;SDS011;45951;45.824;8.824;2023-08-31T01:37:31;1.50;;;1.00;;
60078;SDS011;45951;45.824;8.824;2023-08-31T01:39:35;1.27;;;1.15;;
60078;SDS011;45951;45.824;8.824;2023-08-31T01:41:21;1.48;;;1.10;;
60078;SDS011;45951;45.824;8.824;2023-08-31T01:43:02;2.95;;;1.02;;
60078;SDS011;45951;45.824;8.824;2023-08-31T01:44:44;1.42;;;0.90;;
60078;SDS011;45951;45.824;8.824;2023-08-31T01:46:27;2.03;;;1.02;;
60078;SDS011;45951;45.824;8.824;2023-08-31T01:48:08;1.42;;;0.90;;
60078;SDS011;45951;45.824;8.824;2023-08-31T01:49:48;1.33;;;1.17;;
60078;SDS011;45951;45.824;8.824;2023-08-31T01:51:29;1.65;;;0.98;;
60078;SDS011;45951;45.824;8.824;2023-08-31T01:53:09;2.22;;;1.20;;
60078;SDS011;45951;45.824;8.824;2023-08-31T01:54:49;2.08;;;1.20;;
60078;SDS011;45951;45.824;8.824;2023-08-31T01:56:30;1.30;;;0.98;;
60078;SDS011;45951;45.824;8.824;2023-08-31T01:58:10;1.40;;;1.20;;
60078;SDS011;45951;45.824;8.824;2023-08-31T01:59:50;2.00;;;1.10;;
60078;SDS011;45951;45.824;8.824;2023-08-31T02:01:32;1.80;;;1.10;;
60078;SDS011;45951;45.824;8.824;2023-08-31T02:03:12;1.45;;;1.15;;
60078;SDS011;45951;45.824;8.824;2023-08-31T02:04:53;1.33;;;0.98;;
60078;SDS011;45951;45.824;8.824;2023-08-31T02:06:33;2.13;;;1.02;;
60078;SDS011;45951;45.824;8.824;2023-08-31T02:08:13;2.78;;;1.35;;
60078;SDS011;45951;45.824;8.824;2023-08-31T02:09:57;1.58;;;1.10;;
60078;SDS011;45951;45.824;8.824;2023-08-31T02:11:38;0.90;;;0.85;;
60078;SDS011;45951;45.824;8.824;2023-08-31T02:13:18;2.28;;;1.33;;
60078;SDS011;45951;45.824;8.824;2023-08-31T02:14:58;1.63;;;1.00;;
60078;SDS011;45951;45.824;8.824;2023-08-31T02:16:39;1.13;;;1.02;;
60078;SDS011;45951;45.824;8.824;2023-08-31T02:18:20;1.85;;;1.05;;
60078;SDS011;45951;45.824;8.824;2023-08-31T02:20:00;1.80;;;1.20;;
60078;SDS011;45951;45.824;8.824;2023-08-31T02:21:42;2.95;;;1.23;;
60078;SDS011;45951;45.824;8.824;2023-08-31T02:23:23;1.40;;;1.00;;
60078;SDS011;45951;45.824;8.824;2023-08-31T02:25:03;1.92;;;1.20;;
60078;SDS011;45951;45.824;8.824;2023-08-31T02:26:44;1.75;;;1.10;;
60078;SDS011;45951;45.824;8.824;2023-08-31T02:28:24;1.58;;;0.98;;
60078;SDS011;45951;45.824;8.824;2023-08-31T02:30:04;1.95;;;1.30;;
60078;SDS011;45951;45.824;8.824;2023-08-31T02:31:46;2.33;;;1.45;;
60078;SDS011;45951;45.824;8.824;2023-08-31T02:33:26;1.63;;;1.05;;
60078;SDS011;45951;45.824;8.824;2023-08-31T02:35:06;2.15;;;1.08;;
60078;SDS011;45951;45.824;8.824;2023-08-31T02:36:47;2.08;;;1.10;;
60078;SDS011;45951;45.824;8.824;2023-08-31T02:38:27;1.75;;;1.13;;
60078;SDS011;45951;45.824;8.824;2023-08-31T02:40:08;1.73;;;1.10;;
60078;SDS011;45951;45.824;8.824;2023-08-31T02:41:49;1.23;;;1.00;;
60078;SDS011;45951;45.824;8.824;2023-08-31T02:43:29;1.50;;;1.13;;
60078;SDS011;45951;45.824;8.824;2023-08-31T02:45:10;1.88;;;1.30;;
60078;SDS011;45951;45.824;8.824;2023-08-31T02:46:50;1.88;;;1.00;;
60078;SDS011;45951;45.824;8.824;2023-08-31T02:48:32;2.20;;;1.48;;
60078;SDS011;45951;45.824;8.824;2023-08-31T02:50:12;1.50;;;1.30;;
60078;SDS011;45951;45.824;8.824;2023-08-31T02:51:53;1.60;;;1.20;;
60078;SDS011;45951;45.824;8.824;2023-08-31T02:53:33;1.30;;;1.20;;
60078;SDS011;45951;45.824;8.824;2023-08-31T02:55:13;2.55;;;1.30;;
60078;SDS011;45951;45.824;8.824;2023-08-31T02:56:54;2.08;;;1.23;;
60078;SDS011;45951;45.824;8.824;2023-08-31T02:58:34;2.13;;;1.30;;
60078;SDS011;45951;45.824;8.824;2023-08-31T03:00:14;2.95;;;1.25;;
60078;SDS011;45951;45.824;8.824;2023-08-31T03:01:55;2.30;;;1.20;;
60078;SDS011;45951;45.824;8.824;2023-08-31T03:03:35;2.53;;;1.60;;
60078;SDS011;45951;45.824;8.824;2023-08-31T03:05:16;1.92;;;1.20;;
60078;SDS011;45951;45.824;8.824;2023-08-31T03:06:56;1.75;;;1.10;;
60078;SDS011;45951;45.824;8.824;2023-08-31T03:08:36;1.90;;;1.20;;
60078;SDS011;45951;45.824;8.824;2023-08-31T03:10:17;2.47;;;1.15;;
60078;SDS011;45951;45.824;8.824;2023-08-31T03:11:58;1.50;;;1.15;;
60078;SDS011;45951;45.824;8.824;2023-08-31T03:13:38;3.53;;;1.33;;
60078;SDS011;45951;45.824;8.824;2023-08-31T03:15:18;2.05;;;1.10;;
60078;SDS011;45951;45.824;8.824;2023-08-31T03:16:58;1.80;;;1.20;;
60078;SDS011;45951;45.824;8.824;2023-08-31T03:18:39;1.65;;;1.02;;
60078;SDS011;45951;45.824;8.824;2023-08-31T03:20:19;2.15;;;1.45;;
60078;SDS011;45951;45.824;8.824;2023-08-31T03:21:59;1.35;;;1.10;;
60078;SDS011;45951;45.824;8.824;2023-08-31T03:23:40;1.90;;;1.27;;
60078;SDS011;45951;45.824;8.824;2023-08-31T03:25:20;2.10;;;1.52;;
60078;SDS011;45951;45.824;8.824;2023-08-31T03:27:00;1.33;;;1.02;;
60078;SDS011;45951;45.824;8.824;2023-08-31T03:28:41;1.90;;;1.20;;
60078;SDS011;45951;45.824;8.824;2023-08-31T03:30:21;2.45;;;1.35;;
60078;SDS011;45951;45.824;8.824;2023-08-31T03:32:01;1.73;;;1.33;;
60078;SDS011;45951;45.824;8.824;2023-08-31T03:33:42;2.88;;;1.55;;
60078;SDS011;45951;45.824;8.824;2023-08-31T03:35:22;1.75;;;1.23;;
60078;SDS011;45951;45.824;8.824;2023-08-31T03:37:06;1.67;;;1.25;;
60078;SDS011;45951;45.824;8.824;2023-08-31T03:38:46;1.75;;;1.27;;
60078;SDS011;45951;45.824;8.824;2023-08-31T03:40:27;2.13;;;1.20;;
60078;SDS011;45951;45.824;8.824;2023-08-31T03:42:07;1.73;;;1.20;;
60078;SDS011;45951;45.824;8.824;2023-08-31T03:43:48;1.80;;;1.23;;
60078;SDS011;45951;45.824;8.824;2023-08-31T03:45:28;2.17;;;1.17;;
60078;SDS011;45951;45.824;8.824;2023-08-31T03:47:08;3.72;;;1.40;;
60078;SDS011;45951;45.824;8.824;2023-08-31T03:48:49;2.15;;;1.40;;
60078;SDS011;45951;45.824;8.824;2023-08-31T03:50:29;2.63;;;1.10;;
60078;SDS011;45951;45.824;8.824;2023-08-31T03:52:09;2.50;;;1.30;;
60078;SDS011;45951;45.824;8.824;2023-08-31T03:53:49;1.73;;;1.15;;
60078;SDS011;45951;45.824;8.824;2023-08-31T03:55:30;2.85;;;1.40;;
60078;SDS011;45951;45.824;8.824;2023-08-31T03:57:10;2.58;;;1.30;;
60078;SDS011;45951;45.824;8.824;2023-08-31T03:58:50;1.55;;;1.20;;
60078;SDS011;45951;45.824;8.824;2023-08-31T04:00:31;2.72;;;1.40;;
60078;SDS011;45951;45.824;8.824;2023-08-31T04:02:11;2.10;;;1.20;;
60078;SDS011;45951;45.824;8.824;2023-08-31T04:03:51;2.47;;;1.35;;
60078;SDS011;45951;45.824;8.824;2023-08-31T04:05:32;1.50;;;1.30;;
60078;SDS011;45951;45.824;8.824;2023-08-31T04:07:14;1.42;;;1.20;;
60078;SDS011;45951;45.824;8.824;2023-08-31T04:08:54;2.63;;;1.42;;
60078;SDS011;45951;45.824;8.824;2023-08-31T04:10:34;2.20;;;1.27;;
60078;SDS011;45951;45.824;8.824;2023-08-31T04:12:15;2.28;;;1.40;;
60078;SDS011;45951;45.824;8.824;2023-08-31T04:13:55;4.20;;;1.95;;
60078;SDS011;45951;45.824;8.824;2023-08-31T04:15:35;1.40;;;1.30;;
60078;SDS011;45951;45.824;8.824;2023-08-31T04:17:16;2.22;;;1.33;;
60078;SDS011;45951;45.824;8.824;2023-08-31T04:18:56;2.55;;;1.48;;
60078;SDS011;45951;45.824;8.824;2023-08-31T04:20:37;4.05;;;1.40;;
60078;SDS011;45951;45.824;8.824;2023-08-31T04:22:17;1.58;;;1.02;;
60078;SDS011;45951;45.824;8.824;2023-08-31T04:23:58;1.95;;;1.23;;
60078;SDS011;45951;45.824;8.824;2023-08-31T04:25:40;2.60;;;1.48;;
60078;SDS011;45951;45.824;8.824;2023-08-31T04:27:21;2.17;;;1.25;;
60078;SDS011;45951;45.824;8.824;2023-08-31T04:29:02;2.22;;;1.40;;
60078;SDS011;45951;45.824;8.824;2023-08-31T04:30:45;3.90;;;1.60;;
60078;SDS011;45951;45.824;8.824;2023-08-31T04:32:25;3.10;;;1.45;;
60078;SDS011;45951;45.824;8.824;2023-08-31T04:34:06;2.35;;;1.60;;
60078;SDS011;45951;45.824;8.824;2023-08-31T04:35:47;3.58;;;1.55;;
60078;SDS011;45951;45.824;8.824;2023-08-31T04:37:27;2.50;;;1.52;;
60078;SDS011;45951;45.824;8.824;2023-08-31T04:39:07;4.38;;;1.50;;
60078;SDS011;45951;45.824;8.824;2023-08-31T04:40:48;3.97;;;1.50;;
60078;SDS011;45951;45.824;8.824;2023-08-31T04:42:28;3.45;;;1.58;;
60078;SDS011;45951;45.824;8.824;2023-08-31T04:44:09;1.90;;;1.30;;
60078;SDS011;45951;45.824;8.824;2023-08-31T04:45:53;1.90;;;1.35;;
60078;SDS011;45951;45.824;8.824;2023-08-31T04:47:34;2.60;;;1.58;;
60078;SDS011;45951;45.824;8.824;2023-08-31T04:49:14;1.75;;;1.38;;
60078;SDS011;45951;45.824;8.824;2023-08-31T04:50:58;2.50;;;1.55;;
60078;SDS011;45951;45.824;8.824;2023-08-31T04:52:38;2.85;;;1.50;;
60078;SDS011;45951;45.824;8.824;2023-08-31T04:54:18;3.70;;;1.73;;
60078;SDS011;45951;45.824;8.824;2023-08-31T04:55:59;3.63;;;1.70;;
60078;SDS011;45951;45.824;8.824;2023-08-31T04:57:39;2.50;;;1.70;;
60078;SDS011;45951;45.824;8.824;2023-08-31T04:59:20;3.10;;;1.70;;
60078;SDS011;45951;45.824;8.824;2023-08-31T05:01:00;4.28;;;1.90;;
60078;SDS011;45951;45.824;8.824;2023-08-31T05:02:40;3.95;;;1.80;;
60078;SDS011;45951;45.824;8.824;2023-08-31T05:04:21;2.90;;;1.50;;
60078;SDS011;45951;45.824;8.824;2023-08-31T05:06:03;2.90;;;1.58;;
60078;SDS011;45951;45.824;8.824;2023-08-31T05:07:44;3.08;;;1.50;;
60078;SDS011;45951;45.824;8.824;2023-08-31T05:09:25;2.80;;;1.52;;
60078;SDS011;45951;45.824;8.824;2023-08-31T05:11:05;3.05;;;1.80;;
60078;SDS011;45951;45.824;8.824;2023-08-31T05:12:46;5.30;;;1.60;;
60078;SDS011;45951;45.824;8.824;2023-08-31T05:14:26;2.88;;;1.77;;
60078;SDS011;45951;45.824;8.824;2023-08-31T05:16:06;2.95;;;1.80;;
60078;SDS011;45951;45.824;8.824;2023-08-31T05:17:46;2.33;;;1.60;;
60078;SDS011;45951;45.824;8.824;2023-08-31T05:19:28;3.67;;;1.75;;
60078;SDS011;45951;45.824;8.824;2023-08-31T05:21:08;2.28;;;1.55;;
60078;SDS011;45951;45.824;8.824;2023-08-31T05:22:51;2.72;;;1.60;;
60078;SDS011;45951;45.824;8.824;2023-08-31T05:24:31;3.55;;;2.15;;
60078;SDS011;45951;45.824;8.824;2023-08-31T05:26:12;3.55;;;2.10;;
60078;SDS011;45951;45.824;8.824;2023-08-31T05:27:52;4.55;;;2.45;;
60078;SDS011;45951;45.824;8.824;2023-08-31T05:29:32;4.93;;;2.70;;
60078;SDS011;45951;45.824;8.824;2023-08-31T05:31:13;3.40;;;2.40;;
60078;SDS011;45951;45.824;8.824;2023-08-31T05:32:53;4.35;;;2.80;;
60078;SDS011;45951;45.824;8.824;2023-08-31T05:34:33;4.40;;;2.50;;
60078;SDS011;45951;45.824;8.824;2023-08-31T05:36:17;3.45;;;2.00;;
60078;SDS011;45951;45.824;8.824;2023-08-31T05:38:00;4.88;;;2.00;;
60078;SDS011;45951;45.824;8.824;2023-08-31T05:39:41;3.42;;;2.40;;
60078;SDS011;45951;45.824;8.824;2023-08-31T05:41:21;3.60;;;2.10;;
60078;SDS011;45951;45.824;8.824;2023-08-31T05:43:01;3.17;;;1.83;;
60078;SDS011;45951;45.824;8.824;2023-08-31T05:44:43;3.63;;;2.30;;
60078;SDS011;45951;45.824;8.824;2023-08-31T05:46:23;3.08;;;1.88;;
60078;SDS011;45951;45.824;8.824;2023-08-31T05:48:03;2.95;;;1.77;;
60078;SDS011;45951;45.824;8.824;2023-08-31T05:49:44;2.65;;;1.70;;
60078;SDS011;45951;45.824;8.824;2023-08-31T05:51:24;3.13;;;1.70;;
60078;SDS011;45951;45.824;8.824;2023-08-31T05:53:05;2.30;;;1.60;;
60078;SDS011;45951;45.824;8.824;2023-08-31T05:54:47;2.65;;;1.70;;
60078;SDS011;45951;45.824;8.824;2023-08-31T05:56:28;3.28;;;1.73;;
60078;SDS011;45951;45.824;8.824;2023-08-31T05:58:08;2.40;;;1.52;;
60078;SDS011;45951;45.824;8.824;2023-08-31T05:59:48;3.55;;;1.80;;
60078;SDS011;45951;45.824;8.824;2023-08-31T06:01:28;3.25;;;1.75;;
60078;SDS011;45951;45.824;8.824;2023-08-31T06:03:09;3.58;;;2.00;;
60078;SDS011;45951;45.824;8.824;2023-08-31T06:04:50;4.80;;;2.00;;
60078;SDS011;45951;45.824;8.824;2023-08-31T06:06:30;2.75;;;1.80;;
60078;SDS011;45951;45.824;8.824;2023-08-31T06:08:12;4.65;;;2.10;;
60078;SDS011;45951;45.824;8.824;2023-08-31T06:09:52;4.53;;;2.10;;
60078;SDS011;45951;45.824;8.824;2023-08-31T06:11:33;3.72;;;2.50;;
60078;SDS011;45951;45.824;8.824;2023-08-31T06:13:14;4.07;;;2.30;;
60078;SDS011;45951;45.824;8.824;2023-08-31T06:14:55;3.55;;;2.17;;
60078;SDS011;45951;45.824;8.824;2023-08-31T06:16:35;4.53;;;2.13;;
60078;SDS011;45951;45.824;8.824;2023-08-31T06:18:15;4.20;;;2.13;;
60078;SDS011;45951;45.824;8.824;2023-08-31T06:19:56;3.17;;;2.10;;
60078;SDS011;45951;45.824;8.824;2023-08-31T06:21:36;4.20;;;2.30;;
60078;SDS011;45951;45.824;8.824;2023-08-31T06:23:16;3.28;;;1.95;;
60078;SDS011;45951;45.824;8.824;2023-08-31T06:24:57;3.50;;;1.95;;
60078;SDS011;45951;45.824;8.824;2023-08-31T06:26:37;4.00;;;2.08;;
60078;SDS011;45951;45.824;8.824;2023-08-31T06:28:17;2.78;;;1.80;;
60078;SDS011;45951;45.824;8.824;2023-08-31T06:29:58;2.58;;;1.70;;
60078;SDS011;45951;45.824;8.824;2023-08-31T06:31:38;2.10;;;1.50;;
60078;SDS011;45951;45.824;8.824;2023-08-31T06:33:18;3.53;;;1.70;;
60078;SDS011;45951;45.824;8.824;2023-08-31T06:35:00;2.90;;;1.80;;
60078;SDS011;45951;45.824;8.824;2023-08-31T06:36:40;3.20;;;1.50;;
60078;SDS011;45951;45.824;8.824;2023-08-31T06:38:20;1.45;;;1.30;;
60078;SDS011;45951;45.824;8.824;2023-08-31T06:40:00;3.83;;;1.70;;
60078;SDS011;45951;45.824;8.824;2023-08-31T06:41:41;3.45;;;1.90;;
60078;SDS011;45951;45.824;8.824;2023-08-31T06:43:21;2.60;;;1.63;;
60078;SDS011;45951;45.824;8.824;2023-08-31T06:45:05;3.30;;;1.73;;
60078;SDS011;45951;45.824;8.824;2023-08-31T06:46:47;2.78;;;1.70;;
60078;SDS011;45951;45.824;8.824;2023-08-31T06:48:27;4.03;;;1.50;;
60078;SDS011;45951;45.824;8.824;2023-08-31T06:50:07;2.03;;;1.52;;
60078;SDS011;45951;45.824;8.824;2023-08-31T06:51:48;3.30;;;1.80;;
60078;SDS011;45951;45.824;8.824;2023-08-31T06:53:29;3.10;;;1.70;;
60078;SDS011;45951;45.824;8.824;2023-08-31T06:55:11;2.75;;;1.98;;
60078;SDS011;45951;45.824;8.824;2023-08-31T06:56:51;3.35;;;1.85;;
60078;SDS011;45951;45.824;8.824;2023-08-31T06:58:31;3.75;;;2.50;;
60078;SDS011;45951;45.824;8.824;2023-08-31T07:00:12;4.15;;;2.30;;
60078;SDS011;45951;45.824;8.824;2023-08-31T07:01:52;3.92;;;1.83;;
60078;SDS011;45951;45.824;8.824;2023-08-31T07:03:33;2.30;;;1.63;;
60078;SDS011;45951;45.824;8.824;2023-08-31T07:05:13;3.70;;;1.90;;
60078;SDS011;45951;45.824;8.824;2023-08-31T07:06:54;3.03;;;1.80;;
60078;SDS011;45951;45.824;8.824;2023-08-31T07:08:34;4.55;;;2.13;;
60078;SDS011;45951;45.824;8.824;2023-08-31T07:10:16;3.53;;;1.80;;
60078;SDS011;45951;45.824;8.824;2023-08-31T07:11:57;4.43;;;1.80;;
60078;SDS011;45951;45.824;8.824;2023-08-31T07:13:38;3.67;;;1.77;;
60078;SDS011;45951;45.824;8.824;2023-08-31T07:15:18;3.22;;;1.80;;
60078;SDS011;45951;45.824;8.824;2023-08-31T07:16:58;6.50;;;3.65;;
60078;SDS011;45951;45.824;8.824;2023-08-31T07:18:39;7.75;;;2.70;;
60078;SDS011;45951;45.824;8.824;2023-08-31T07:20:19;2.95;;;2.00;;
60078;SDS011;45951;45.824;8.824;2023-08-31T07:21:59;3.13;;;2.10;;
60078;SDS011;45951;45.824;8.824;2023-08-31T07:23:40;6.80;;;2.33;;
60078;SDS011;45951;45.824;8.824;2023-08-31T07:25:20;4.35;;;2.10;;
60078;SDS011;45951;45.824;8.824;2023-08-31T07:27:01;4.50;;;1.80;;
60078;SDS011;45951;45.824;8.824;2023-08-31T07:28:44;2.97;;;1.83;;
60078;SDS011;45951;45.824;8.824;2023-08-31T07:30:25;2.47;;;1.67;;
60078;SDS011;45951;45.824;8.824;2023-08-31T07:32:05;2.92;;;1.83;;
60078;SDS011;45951;45.824;8.824;2023-08-31T07:33:46;4.20;;;1.85;;
60078;SDS011;45951;45.824;8.824;2023-08-31T07:35:26;3.05;;;1.73;;
60078;SDS011;45951;45.824;8.824;2023-08-31T07:37:06;4.75;;;1.95;;
60078;SDS011;45951;45.824;8.824;2023-08-31T07:38:47;4.57;;;1.80;;
60078;SDS011;45951;45.824;8.824;2023-08-31T07:40:27;2.53;;;1.60;;
60078;SDS011;45951;45.824;8.824;2023-08-31T07:42:07;2.53;;;1.70;;
60078;SDS011;45951;45.824;8.824;2023-08-31T07:43:48;3.97;;;1.80;;
60078;SDS011;45951;45.824;8.824;2023-08-31T07:45:29;3.97;;;2.05;;
60078;SDS011;45951;45.824;8.824;2023-08-31T07:47:09;5.75;;;2.17;;
60078;SDS011;45951;45.824;8.824;2023-08-31T07:48:50;4.68;;;2.20;;
60078;SDS011;45951;45.824;8.824;2023-08-31T07:50:30;3.50;;;1.80;;
60078;SDS011;45951;45.824;8.824;2023-08-31T07:52:11;3.97;;;2.35;;
60078;SDS011;45951;45.824;8.824;2023-08-31T07:53:51;4.60;;;2.20;;
60078;SDS011;45951;45.824;8.824;2023-08-31T07:55:31;4.05;;;2.15;;
60078;SDS011;45951;45.824;8.824;2023-08-31T07:57:12;3.47;;;2.00;;
60078;SDS011;45951;45.824;8.824;2023-08-31T07:58:52;2.40;;;1.70;;
60078;SDS011;45951;45.824;8.824;2023-08-31T08:00:32;4.22;;;2.38;;
60078;SDS011;45951;45.824;8.824;2023-08-31T08:02:13;3.05;;;1.63;;
60078;SDS011;45951;45.824;8.824;2023-08-31T08:03:55;2.40;;;1.60;;
60078;SDS011;45951;45.824;8.824;2023-08-31T08:05:36;3.05;;;1.60;;
60078;SDS011;45951;45.824;8.824;2023-08-31T08:07:17;1.90;;;1.50;;
60078;SDS011;45951;45.824;8.824;2023-08-31T08:08:57;4.20;;;1.60;;
60078;SDS011;45951;45.824;8.824;2023-08-31T08:10:37;3.38;;;1.60;;
60078;SDS011;45951;45.824;8.824;2023-08-31T08:12:18;2.47;;;1.83;;
60078;SDS011;45951;45.824;8.824;2023-08-31T08:13:58;3.63;;;1.70;;
60078;SDS011;45951;45.824;8.824;2023-08-31T08:15:39;3.38;;;1.65;;
60078;SDS011;45951;45.824;8.824;2023-08-31T08:17:19;3.13;;;1.65;;
60078;SDS011;45951;45.824;8.824;2023-08-31T08:18:59;2.42;;;1.73;;
60078;SDS011;45951;45.824;8.824;2023-08-31T08:20:39;2.60;;;1.60;;
60078;SDS011;45951;45.824;8.824;2023-08-31T08:22:20;3.45;;;1.83;;
60078;SDS011;45951;45.824;8.824;2023-08-31T08:24:00;2.78;;;1.70;;
60078;SDS011;45951;45.824;8.824;2023-08-31T08:25:40;3.17;;;1.75;;
60078;SDS011;45951;45.824;8.824;2023-08-31T08:27:21;3.78;;;1.85;;
60078;SDS011;45951;45.824;8.824;2023-08-31T08:29:01;3.20;;;1.75;;
60078;SDS011;45951;45.824;8.824;2023-08-31T08:30:43;4.85;;;1.77;;
60078;SDS011;45951;45.824;8.824;2023-08-31T08:32:23;3.15;;;1.70;;
60078;SDS011;45951;45.824;8.824;2023-08-31T08:34:03;3.42;;;1.83;;
60078;SDS011;45951;45.824;8.824;2023-08-31T08:35:44;2.80;;;1.88;;
60078;SDS011;45951;45.824;8.824;2023-08-31T08:37:24;4.22;;;1.80;;
60078;SDS011;45951;45.824;8.824;2023-08-31T08:39:05;2.15;;;1.65;;
60078;SDS011;45951;45.824;8.824;2023-08-31T08:40:45;4.82;;;1.92;;
60078;SDS011;45951;45.824;8.824;2023-08-31T08:42:26;4.05;;;2.20;;
60078;SDS011;45951;45.824;8.824;2023-08-31T08:44:06;2.80;;;1.80;;
60078;SDS011;45951;45.824;8.824;2023-08-31T08:45:47;3.05;;;1.80;;
60078;SDS011;45951;45.824;8.824;2023-08-31T08:47:27;2.38;;;1.50;;
60078;SDS011;45951;45.824;8.824;2023-08-31T08:49:08;2.88;;;1.60;;
60078;SDS011;45951;45.824;8.824;2023-08-31T08:50:50;2.45;;;1.52;;
60078;SDS011;45951;45.824;8.824;2023-08-31T08:52:31;2.30;;;1.52;;
60078;SDS011;45951;45.824;8.824;2023-08-31T08:54:11;3.33;;;1.73;;
60078;SDS011;45951;45.824;8.824;2023-08-31T08:55:51;2.92;;;1.75;;
60078;SDS011;45951;45.824;8.824;2023-08-31T08:57:32;2.15;;;1.60;;
60078;SDS011;45951;45.824;8.824;2023-08-31T08:59:13;2.83;;;1.90;;
60078;SDS011;45951;45.824;8.824;2023-08-31T09:00:54;3.30;;;1.90;;
60078;SDS011;45951;45.824;8.824;2023-08-31T09:02:37;3.15;;;1.80;;
60078;SDS011;45951;45.824;8.824;2023-08-31T09:04:18;3.60;;;1.85;;
60078;SDS011;45951;45.824;8.824;2023-08-31T09:05:59;4.20;;;2.00;;
60078;SDS011;45951;45.824;8.824;2023-08-31T09:08:27;3.78;;;2.10;;
60078;SDS011;45951;45.824;8.824;2023-08-31T09:09:49;3.95;;;2.03;;
60078;SDS011;45951;45.824;8.824;2023-08-31T09:11:30;4.32;;;2.00;;
60078;SDS011;45951;45.824;8.824;2023-08-31T09:13:11;3.75;;;2.10;;
60078;SDS011;45951;45.824;8.824;2023-08-31T09:14:59;2.53;;;1.88;;
60078;SDS011;45951;45.824;8.824;2023-08-31T09:16:42;4.50;;;1.80;;
60078;SDS011;45951;45.824;8.824;2023-08-31T09:20:12;3.63;;;2.20;;
60078;SDS011;45951;45.824;8.824;2023-08-31T09:21:55;3.40;;;1.95;;
60078;SDS011;45951;45.824;8.824;2023-08-31T09:23:35;3.60;;;2.10;;
60078;SDS011;45951;45.824;8.824;2023-08-31T09:25:16;2.92;;;1.77;;
60078;SDS011;45951;45.824;8.824;2023-08-31T09:26:56;3.47;;;1.80;;
60078;SDS011;45951;45.824;8.824;2023-08-31T09:28:40;2.70;;;1.73;;
60078;SDS011;45951;45.824;8.824;2023-08-31T09:30:20;3.92;;;1.90;;
60078;SDS011;45951;45.824;8.824;2023-08-31T09:32:01;2.50;;;1.70;;
60078;SDS011;45951;45.824;8.824;2023-08-31T09:33:51;4.28;;;2.10;;
60078;SDS011;45951;45.824;8.824;2023-08-31T09:35:32;3.38;;;2.00;;
60078;SDS011;45951;45.824;8.824;2023-08-31T09:37:14;2.42;;;1.80;;
60078;SDS011;45951;45.824;8.824;2023-08-31T09:38:58;3.13;;;1.80;;
60078;SDS011;45951;45.824;8.824;2023-08-31T09:40:38;2.03;;;1.70;;
60078;SDS011;45951;45.824;8.824;2023-08-31T09:42:19;3.17;;;1.95;;
60078;SDS011;45951;45.824;8.824;2023-08-31T09:44:15;3.08;;;1.73;;
60078;SDS011;45951;45.824;8.824;2023-08-31T09:45:57;3.10;;;1.70;;
60078;SDS011;45951;45.824;8.824;2023-08-31T09:47:39;2.00;;;1.60;;
60078;SDS011;45951;45.824;8.824;2023-08-31T09:49:19;3.75;;;2.05;;
60078;SDS011;45951;45.824;8.824;2023-08-31T09:51:00;2.35;;;1.70;;
60078;SDS011;45951;45.824;8.824;2023-08-31T09:52:44;4.00;;;2.28;;
60078;SDS011;45951;45.824;8.824;2023-08-31T09:54:25;2.03;;;1.60;;
60078;SDS011;45951;45.824;8.824;2023-08-31T09:56:08;3.25;;;1.90;;
60078;SDS011;45951;45.824;8.824;2023-08-31T09:57:53;2.67;;;1.80;;
60078;SDS011;45951;45.824;8.824;2023-08-31T09:59:40;4.35;;;2.25;;
60078;SDS011;45951;45.824;8.824;2023-08-31T10:01:21;2.75;;;1.80;;
60078;SDS011;45951;45.824;8.824;2023-08-31T10:03:03;2.63;;;2.00;;
60078;SDS011;45951;45.824;8.824;2023-08-31T10:04:44;3.30;;;1.80;;
60078;SDS011;45951;45.824;8.824;2023-08-31T10:06:25;3.35;;;1.90;;
60078;SDS011;45951;45.824;8.824;2023-08-31T10:08:06;3.35;;;1.90;;
60078;SDS011;45951;45.824;8.824;2023-08-31T10:09:47;2.83;;;1.73;;
60078;SDS011;45951;45.824;8.824;2023-08-31T10:11:28;4.13;;;2.30;;
60078;SDS011;45951;45.824;8.824;2023-08-31T10:13:09;3.97;;;2.15;;
60078;SDS011;45951;45.824;8.824;2023-08-31T10:14:51;2.42;;;1.73;;
60078;SDS011;45951;45.824;8.824;2023-08-31T10:16:32;3.72;;;1.98;;
60078;SDS011;45951;45.824;8.824;2023-08-31T10:18:13;4.95;;;2.03;;
60078;SDS011;45951;45.824;8.824;2023-08-31T10:19:53;2.78;;;1.90;;
60078;SDS011;45951;45.824;8.824;2023-08-31T10:21:34;2.00;;;1.80;;